createdAt,value
2022-08-17T00:00:43.957Z,95391.34
2022-08-17T00:03:37.957Z,95382.81
2022-08-17T00:06:27.968Z,95368.34
2022-08-17T00:09:18.204Z,95377.38
2022-08-17T00:12:40.360Z,95380.69
2022-08-17T00:15:13.466Z,95381.50
2022-08-17T00:17:59.272Z,95359.34
2022-08-17T00:20:45.186Z,95362.59
2022-08-17T00:23:30.970Z,95367.53
2022-08-17T00:26:43.732Z,95377.66
2022-08-17T00:29:24.708Z,95362.91
2022-08-17T00:33:13.959Z,95320.25
2022-08-17T00:35:18.488Z,95368.88
2022-08-17T00:38:06.362Z,95340.47
2022-08-17T00:41:02.011Z,95343.47
2022-08-17T00:44:04.101Z,95366.66
2022-08-17T00:46:50.253Z,95341.50
2022-08-17T00:49:36.114Z,95349.72
2022-08-17T00:52:25.775Z,95360.09
2022-08-17T00:55:11.904Z,95345.84
2022-08-17T00:57:59.272Z,95370.97
2022-08-17T01:00:47.407Z,95366.03
2022-08-17T01:03:33.493Z,95376.13
2022-08-17T01:06:20.706Z,95371.47
2022-08-17T01:09:08.983Z,95369.78
2022-08-17T01:11:55.047Z,95380.72
2022-08-17T01:14:41.177Z,95357.19
2022-08-17T01:17:29.058Z,95373.88
2022-08-17T01:20:15.121Z,95370.34
2022-08-17T01:23:01.729Z,95376.34
2022-08-17T01:25:54.373Z,95353.38
2022-08-17T01:28:54.560Z,95376.06
2022-08-17T01:31:45.921Z,95363.41
2022-08-17T01:34:37.400Z,95376.81
2022-08-17T01:37:34.491Z,95376.25
2022-08-17T01:40:34.831Z,95376.16
2022-08-17T01:43:31.368Z,95366.38
2022-08-17T01:46:23.801Z,95366.91
2022-08-17T01:49:11.613Z,95369.41
2022-08-17T01:51:57.776Z,95345.34
2022-08-17T01:54:47.754Z,95352.72
2022-08-17T01:57:33.564Z,95356.25
2022-08-17T02:00:19.357Z,95343.41
2022-08-17T02:03:05.406Z,95347.84
2022-08-17T02:05:53.269Z,95354.00
2022-08-17T02:09:01.672Z,95354.50
2022-08-17T02:11:46.274Z,95344.59
2022-08-17T02:14:32.276Z,95336.44
2022-08-17T02:17:18.164Z,95338.91
2022-08-17T02:20:04.886Z,95356.19
2022-08-17T02:22:51.151Z,95340.56
2022-08-17T02:25:39.166Z,95351.81
2022-08-17T02:28:25.072Z,95352.69
2022-08-17T02:31:12.921Z,95343.66
2022-08-17T02:34:03.837Z,95363.88
2022-08-17T02:36:53.424Z,95353.19
2022-08-17T02:39:39.391Z,95318.13
2022-08-17T02:42:28.354Z,95356.50
2022-08-17T02:45:17.306Z,95363.53
2022-08-17T02:48:03.850Z,95362.47
2022-08-17T02:50:50.099Z,95342.81
2022-08-17T02:53:36.446Z,95370.66
2022-08-17T02:56:22.561Z,95364.66
2022-08-17T02:59:08.628Z,95362.94
2022-08-17T03:01:54.825Z,95376.91
2022-08-17T03:04:40.557Z,95335.63
2022-08-17T03:07:26.594Z,95372.53
2022-08-17T03:10:13.640Z,95370.09
2022-08-17T03:12:59.941Z,95370.66
2022-08-17T03:15:47.584Z,95372.53
2022-08-17T03:18:33.727Z,95377.16
2022-08-17T03:21:19.538Z,95374.44
2022-08-17T03:24:09.098Z,95366.56
2022-08-17T03:26:55.303Z,95362.66
2022-08-17T03:29:41.529Z,95389.66
2022-08-17T03:32:27.801Z,95382.56
2022-08-17T03:35:16.070Z,95368.56
2022-08-17T03:38:05.266Z,95373.53
2022-08-17T03:40:56.941Z,95376.75
2022-08-17T03:43:45.563Z,95392.63
2022-08-17T03:46:49.882Z,95381.09
2022-08-17T03:49:54.458Z,95379.47
2022-08-17T03:52:58.852Z,95398.56
2022-08-17T03:56:03.493Z,95392.59
2022-08-17T03:58:50.220Z,95403.19
2022-08-17T04:01:36.077Z,95374.44
2022-08-17T04:04:28.017Z,95403.91
2022-08-17T04:07:14.010Z,95394.28
2022-08-17T04:10:00.008Z,95395.16
2022-08-17T04:12:51.516Z,95387.97
2022-08-17T04:15:38.102Z,95417.19
2022-08-17T04:18:25.607Z,95410.66
2022-08-17T04:21:11.757Z,95405.16
2022-08-17T04:23:58.345Z,95433.50
2022-08-17T04:26:53.903Z,95416.03
2022-08-17T04:29:54.969Z,95418.47
2022-08-17T04:33:00.818Z,95420.06
2022-08-17T04:35:54.576Z,95418.16
2022-08-17T04:38:42.120Z,95424.72
2022-08-17T04:41:47.027Z,95422.25
2022-08-17T04:44:37.012Z,95430.66
2022-08-17T04:47:24.153Z,95431.00
2022-08-17T04:50:10.278Z,95417.03
2022-08-17T04:52:56.437Z,95431.31
2022-08-17T04:55:43.099Z,95439.19
2022-08-17T04:58:29.097Z,95436.75
2022-08-17T05:01:16.885Z,95420.28
2022-08-17T05:04:21.389Z,95448.44
2022-08-17T05:07:23.437Z,95447.69
2022-08-17T05:10:10.832Z,95431.59
2022-08-17T05:13:00.871Z,95445.78
2022-08-17T05:15:48.287Z,95460.25
2022-08-17T05:18:35.051Z,95443.09
2022-08-17T05:21:22.189Z,95455.44
2022-08-17T05:24:16.728Z,95451.09
2022-08-17T05:27:18.768Z,95443.19
2022-08-17T05:30:05.249Z,95456.03
2022-08-17T05:32:55.419Z,95445.19
2022-08-17T05:35:44.098Z,95448.22
2022-08-17T05:38:31.098Z,95440.34
2022-08-17T05:41:17.484Z,95441.47
2022-08-17T05:44:05.206Z,95440.47
2022-08-17T05:46:54.366Z,95444.34
2022-08-17T05:49:40.231Z,95436.25
2022-08-17T05:52:32.205Z,95441.41
2022-08-17T05:55:35.702Z,95410.53
2022-08-17T05:58:27.876Z,95423.50
2022-08-17T06:01:40.699Z,95429.72
2022-08-17T06:05:02.388Z,95448.97
2022-08-17T06:20:15.755Z,95440.19
2022-08-17T06:23:10.209Z,95423.16
2022-08-17T06:26:01.402Z,95423.16
2022-08-17T06:28:56.912Z,95444.69
2022-08-17T06:31:42.892Z,95443.28
2022-08-17T06:34:29.897Z,95438.47
2022-08-17T06:37:35.998Z,95428.81
2022-08-17T06:40:48.217Z,95431.34
2022-08-17T06:43:48.183Z,95438.13
2022-08-17T06:46:39.727Z,95431.63
2022-08-17T06:49:33.250Z,95426.25
2022-08-17T06:52:55.530Z,95428.47
2022-08-17T06:56:00.170Z,95424.72
2022-08-17T06:58:46.173Z,95424.50
2022-08-17T07:01:35.049Z,95424.31
2022-08-17T07:04:24.425Z,95419.09
2022-08-17T07:07:29.818Z,95425.97
2022-08-17T07:10:16.398Z,95413.16
2022-08-17T07:13:20.829Z,95427.91
2022-08-17T07:16:26.268Z,95424.13
2022-08-17T07:19:16.864Z,95417.00
2022-08-17T07:22:16.926Z,95421.13
2022-08-17T07:25:06.330Z,95417.06
2022-08-17T07:27:55.962Z,95401.78
2022-08-17T07:30:47.381Z,95401.50
2022-08-17T07:33:36.779Z,95405.31
2022-08-17T07:36:30.071Z,95408.34
2022-08-17T07:39:26.325Z,95406.41
2022-08-17T07:42:12.811Z,95409.94
2022-08-17T07:45:18.892Z,95408.28
2022-08-17T07:48:20.291Z,95403.13
2022-08-17T07:51:15.745Z,95399.81
2022-08-17T07:54:14.480Z,95397.59
2022-08-17T07:57:08.953Z,95405.19
2022-08-17T08:00:01.647Z,95396.94
2022-08-17T08:02:59.599Z,95398.66
2022-08-17T08:05:52.918Z,95388.13
2022-08-17T08:08:42.832Z,95390.03
2022-08-17T08:11:34.966Z,95376.00
2022-08-17T08:14:28.720Z,95365.63
2022-08-17T08:17:24.337Z,95381.94
2022-08-17T08:20:34.892Z,95381.56
2022-08-17T08:23:23.554Z,95385.34
2022-08-17T08:26:34.972Z,95372.97
2022-08-17T08:29:29.811Z,95368.22
2022-08-17T08:32:16.383Z,95367.56
2022-08-17T08:35:17.853Z,95360.13
2022-08-17T08:38:29.298Z,95358.28
2022-08-17T08:41:26.290Z,95344.16
2022-08-17T08:44:15.165Z,95354.66
2022-08-17T08:47:01.317Z,95362.03
2022-08-17T08:50:08.478Z,95356.66
2022-08-17T08:53:33.041Z,95356.25
2022-08-17T08:56:34.932Z,95362.31
2022-08-17T08:59:24.169Z,95356.31
2022-08-17T09:02:25.197Z,95348.16
2022-08-17T09:05:20.460Z,95360.78
2022-08-17T09:08:28.190Z,95350.13
2022-08-17T09:12:02.428Z,95349.97
2022-08-17T09:14:57.275Z,95343.91
2022-08-17T09:18:30.412Z,95351.34
2022-08-17T09:21:18.251Z,95353.22
2022-08-17T09:24:31.999Z,95356.84
2022-08-17T09:27:21.524Z,95352.97
2022-08-17T09:30:10.446Z,95337.03
2022-08-17T09:33:00.266Z,95351.97
2022-08-17T09:35:51.318Z,95345.09
2022-08-17T09:38:49.158Z,95352.78
2022-08-17T09:42:00.756Z,95362.13
2022-08-17T09:44:58.805Z,95360.22
2022-08-17T09:48:18.155Z,95359.72
2022-08-17T09:51:07.409Z,95346.22
2022-08-17T09:53:53.479Z,95345.19
2022-08-17T09:57:25.888Z,95365.81
2022-08-17T10:00:17.891Z,95337.16
2022-08-17T10:03:28.720Z,95351.66
2022-08-17T10:06:23.202Z,95357.75
2022-08-17T10:09:22.866Z,95338.00
2022-08-17T10:12:30.437Z,95348.78
2022-08-17T10:15:34.626Z,95339.63
2022-08-17T10:18:48.079Z,95352.75
2022-08-17T10:22:00.958Z,95332.91
2022-08-17T10:25:23.955Z,95334.94
2022-08-17T10:28:20.131Z,95333.69
2022-08-17T10:34:41.452Z,95342.56
2022-08-17T10:37:53.568Z,95325.81
2022-08-17T10:40:53.135Z,95337.50
2022-08-17T10:43:54.434Z,95333.69
2022-08-17T10:47:15.083Z,95328.06
2022-08-17T10:50:39.423Z,95328.78
2022-08-17T10:53:31.677Z,95325.50
2022-08-17T10:56:23.912Z,95336.81
2022-08-17T10:59:09.919Z,95335.69
2022-08-17T11:02:15.387Z,95327.28
2022-08-17T11:05:06.952Z,95309.88
2022-08-17T11:08:22.290Z,95321.59
2022-08-17T11:11:50.966Z,95322.19
2022-08-17T11:14:50.557Z,95320.00
2022-08-17T11:17:41.496Z,95306.09
2022-08-17T11:20:48.424Z,95320.44
2022-08-17T11:23:47.012Z,95314.94
2022-08-17T11:26:36.455Z,95311.94
2022-08-17T11:29:34.377Z,95314.06
2022-08-17T11:32:34.251Z,95301.09
2022-08-17T11:35:20.653Z,95291.06
2022-08-17T11:38:16.824Z,95306.78
2022-08-17T11:41:35.317Z,95297.94
2022-08-17T11:44:21.093Z,95301.38
2022-08-17T11:48:26.556Z,95291.78
2022-08-17T11:51:33.974Z,95296.81
2022-08-17T11:55:07.726Z,95294.72
2022-08-17T11:58:22.816Z,95290.06
2022-08-17T12:01:37.119Z,95280.97
2022-08-17T12:04:31.979Z,95280.41
2022-08-17T12:07:23.218Z,95291.91
2022-08-17T12:10:12.305Z,95285.69
2022-08-17T12:13:13.818Z,95277.06
2022-08-17T12:16:01.087Z,95266.59
2022-08-17T12:18:58.850Z,95272.00
2022-08-17T12:21:58.058Z,95256.81
2022-08-17T12:24:55.725Z,95266.47
2022-08-17T12:28:05.963Z,95271.53
2022-08-17T12:30:54.916Z,95255.75
2022-08-17T12:33:45.705Z,95267.28
2022-08-17T12:36:33.245Z,95262.25
2022-08-17T12:39:25.036Z,95264.28
2022-08-17T12:42:27.345Z,95244.66
2022-08-17T12:45:29.410Z,95265.56
2022-08-17T12:48:23.182Z,95261.81
2022-08-17T12:51:09.242Z,95257.47
2022-08-17T12:53:55.617Z,95243.31
2022-08-17T12:56:46.004Z,95260.06
2022-08-17T12:59:34.051Z,95265.69
2022-08-17T13:02:30.692Z,95257.63
2022-08-17T13:05:25.347Z,95259.63
2022-08-17T13:08:18.133Z,95258.00
2022-08-17T13:11:24.926Z,95250.91
2022-08-17T13:14:11.511Z,95243.13
2022-08-17T13:17:00.449Z,95254.81
2022-08-17T13:19:50.784Z,95233.84
2022-08-17T13:22:44.517Z,95244.75
2022-08-17T13:25:31.071Z,95224.75
2022-08-17T13:28:36.169Z,95225.56
2022-08-17T13:31:27.905Z,95241.50
2022-08-17T13:34:33.555Z,95241.44
2022-08-17T13:37:41.428Z,95249.63
2022-08-17T13:40:32.458Z,95252.53
2022-08-17T13:43:40.196Z,95249.13
2022-08-17T13:46:33.140Z,95243.63
2022-08-17T13:49:21.022Z,95245.41
2022-08-17T13:52:32.177Z,95238.41
2022-08-17T13:55:21.395Z,95219.91
2022-08-17T13:58:08.131Z,95240.88
2022-08-17T14:00:56.274Z,95220.19
2022-08-17T14:03:42.426Z,95231.03
2022-08-17T14:06:52.979Z,95210.38
2022-08-17T14:09:50.672Z,95223.38
2022-08-17T14:12:38.922Z,95220.03
2022-08-17T14:15:56.210Z,95227.81
2022-08-17T14:18:56.036Z,95219.78
2022-08-17T14:21:38.699Z,95219.84
2022-08-17T14:24:27.842Z,95206.97
2022-08-17T14:27:14.890Z,95219.88
2022-08-17T14:30:01.776Z,95217.56
2022-08-17T14:32:52.088Z,95217.59
2022-08-17T14:35:38.442Z,95215.97
2022-08-17T14:38:24.987Z,95216.53
2022-08-17T14:41:11.972Z,95213.53
2022-08-17T14:43:59.496Z,95212.53
2022-08-17T14:46:46.074Z,95204.25
2022-08-17T14:49:35.909Z,95196.94
2022-08-17T14:52:22.413Z,95202.44
2022-08-17T14:55:09.414Z,95200.63
2022-08-17T14:57:55.233Z,95188.97
2022-08-17T15:00:43.050Z,95189.38
2022-08-17T15:03:29.176Z,95193.06
2022-08-17T15:06:16.443Z,95203.19
2022-08-17T15:09:02.834Z,95196.91
2022-08-17T15:11:48.876Z,95193.41
2022-08-17T15:14:35.926Z,95201.88
2022-08-17T15:17:22.539Z,95201.75
2022-08-17T15:20:14.821Z,95205.91
2022-08-17T15:23:00.732Z,95191.53
2022-08-17T15:25:48.399Z,95202.28
2022-08-17T15:28:36.379Z,95187.47
2022-08-17T15:31:31.834Z,95200.28
2022-08-17T15:34:18.898Z,95191.63
2022-08-17T15:37:05.097Z,95203.03
2022-08-17T15:39:51.732Z,95191.22
2022-08-17T15:42:38.639Z,95204.28
2022-08-17T15:45:28.376Z,95191.25
2022-08-17T15:48:14.680Z,95194.13
2022-08-17T15:51:01.153Z,95207.72
2022-08-17T15:53:50.119Z,95213.94
2022-08-17T15:56:36.414Z,95203.28
2022-08-17T15:59:22.318Z,95182.13
2022-08-17T16:03:13.363Z,95176.31
2022-08-17T16:05:30.177Z,95207.47
2022-08-17T16:08:21.168Z,95209.84
2022-08-17T16:11:08.400Z,95204.53
2022-08-17T16:13:54.760Z,95194.41
2022-08-17T16:16:42.231Z,95198.88
2022-08-17T16:19:28.377Z,95196.78
2022-08-17T16:22:14.646Z,95214.06
2022-08-17T16:25:07.488Z,95211.50
2022-08-17T16:27:53.865Z,95215.47
2022-08-17T16:30:41.303Z,95219.44
2022-08-17T16:33:27.309Z,95220.19
2022-08-17T16:36:13.317Z,95228.47
2022-08-17T16:39:00.655Z,95231.91
2022-08-17T16:41:46.645Z,95221.06
2022-08-17T16:44:32.705Z,95231.25
2022-08-17T16:47:19.562Z,95230.16
2022-08-17T16:50:07.109Z,95231.44
2022-08-17T16:53:03.130Z,95230.94
2022-08-17T16:55:52.006Z,95236.19
2022-08-17T16:58:41.031Z,95243.78
2022-08-17T17:01:29.298Z,95241.78
2022-08-17T17:04:17.462Z,95247.84
2022-08-17T17:07:12.326Z,95239.88
2022-08-17T17:09:59.972Z,95241.31
2022-08-17T17:13:01.395Z,95245.19
2022-08-17T17:15:53.836Z,95248.22
2022-08-17T17:18:41.247Z,95245.25
2022-08-17T17:21:34.494Z,95260.22
2022-08-17T18:01:16.538Z,95289.91
2022-08-17T18:04:21.462Z,95307.22
2022-08-17T18:07:13.654Z,95317.50
2022-08-17T18:10:19.764Z,95320.84
2022-08-17T18:13:37.210Z,95330.06
2022-08-17T18:16:23.189Z,95316.81
2022-08-17T18:19:14.461Z,95329.22
2022-08-17T18:22:13.077Z,95339.03
2022-08-17T18:25:01.272Z,95333.50
2022-08-17T18:27:51.819Z,95346.34
2022-08-17T18:30:37.830Z,95349.41
2022-08-17T18:33:26.625Z,95356.66
2022-08-17T18:36:14.481Z,95349.03
2022-08-17T18:39:16.104Z,95358.03
2022-08-17T18:42:06.854Z,95355.28
2022-08-17T18:44:59.174Z,95362.53
2022-08-17T18:47:54.272Z,95369.06
2022-08-17T18:50:44.660Z,95364.50
2022-08-17T18:53:38.426Z,95371.13
2022-08-17T18:56:31.305Z,95377.44
2022-08-17T18:59:51.193Z,95397.81
2022-08-17T19:02:49.957Z,95403.22
2022-08-17T19:05:39.287Z,95411.16
2022-08-17T19:08:31.222Z,95415.16
2022-08-17T19:11:24.026Z,95392.41
2022-08-17T19:14:12.597Z,95405.03
2022-08-17T19:17:14.113Z,95407.38
2022-08-17T19:20:09.189Z,95418.47
2022-08-17T19:23:27.737Z,95425.22
2022-08-17T19:26:54.747Z,95430.53
2022-08-17T19:29:34.401Z,95425.41
2022-08-17T19:32:34.581Z,95432.19
2022-08-17T19:35:22.225Z,95437.78
2022-08-17T19:38:29.292Z,95426.50
2022-08-17T19:41:23.013Z,95409.38
2022-08-17T19:44:15.383Z,95441.13
2022-08-17T19:47:11.691Z,95426.56
2022-08-17T19:50:49.637Z,95440.94
2022-08-17T19:54:05.493Z,95447.63
2022-08-17T19:57:08.283Z,95450.47
2022-08-17T20:00:18.308Z,95433.22
2022-08-17T20:03:16.352Z,95449.19
2022-08-17T20:06:12.960Z,95437.00
2022-08-17T20:09:04.249Z,95450.94
2022-08-17T20:11:59.101Z,95458.56
2022-08-17T20:14:55.877Z,95454.72
2022-08-17T20:17:47.731Z,95448.78
2022-08-17T20:21:22.452Z,95464.16
2022-08-17T20:24:40.661Z,95464.72
2022-08-17T20:27:32.217Z,95455.53
2022-08-17T20:30:37.638Z,95469.22
2022-08-17T20:33:32.631Z,95467.06
2022-08-17T20:36:24.323Z,95473.13
2022-08-17T20:39:31.226Z,95472.41
2022-08-17T20:42:19.940Z,95477.31
2022-08-17T20:45:21.189Z,95474.41
2022-08-17T20:48:36.473Z,95475.53
2022-08-17T20:51:31.957Z,95460.81
2022-08-17T20:54:17.863Z,95465.97
2022-08-17T20:57:06.177Z,95451.56
2022-08-17T21:00:16.068Z,95465.47
2022-08-17T21:03:23.123Z,95467.47
2022-08-17T21:06:17.591Z,95475.72
2022-08-17T21:09:13.096Z,95468.09
2022-08-17T21:12:04.491Z,95470.06
2022-08-17T21:14:58.699Z,95465.44
2022-08-17T21:18:03.779Z,95478.09
2022-08-17T21:21:20.662Z,95461.72
2022-08-17T21:24:52.705Z,95475.22
2022-08-17T21:28:11.120Z,95495.47
2022-08-17T21:31:06.697Z,95487.53
2022-08-17T21:34:15.710Z,95487.03
2022-08-17T21:37:20.005Z,95489.25
2022-08-17T21:40:18.506Z,95479.47
2022-08-17T21:43:20.123Z,95480.03
2022-08-17T21:46:27.282Z,95481.41
2022-08-17T21:49:16.602Z,95475.66
2022-08-17T21:52:03.068Z,95478.41
2022-08-17T21:55:22.628Z,95481.47
2022-08-17T21:58:25.218Z,95482.56
2022-08-17T22:01:38.936Z,95487.53
2022-08-17T22:04:29.069Z,95485.34
2022-08-17T22:07:15.592Z,95481.00
2022-08-17T22:10:02.299Z,95469.53
2022-08-17T22:13:17.123Z,95481.28
2022-08-17T22:16:28.629Z,95483.25
2022-08-17T22:19:17.801Z,95471.22
2022-08-17T22:22:27.164Z,95473.16
2022-08-17T22:25:20.836Z,95477.00
2022-08-17T22:28:09.233Z,95476.72
2022-08-17T22:31:04.406Z,95467.16
2022-08-17T22:34:02.137Z,95476.75
2022-08-17T22:36:48.443Z,95468.28
2022-08-17T22:39:40.452Z,95474.31
2022-08-17T22:42:28.625Z,95469.69
2022-08-17T22:45:15.061Z,95476.47
2022-08-17T22:48:02.208Z,95477.06
2022-08-17T22:50:50.167Z,95477.59
2022-08-17T22:53:55.099Z,95479.25
2022-08-17T22:57:18.869Z,95480.91
2022-08-17T23:00:05.627Z,95462.06
2022-08-17T23:03:17.625Z,95477.69
2022-08-17T23:06:10.130Z,95469.72
2022-08-17T23:08:57.686Z,95459.63
2022-08-17T23:11:50.003Z,95461.25
2022-08-17T23:14:39.379Z,95468.63
2022-08-17T23:17:25.582Z,95445.44
2022-08-17T23:20:13.990Z,95460.78
2022-08-17T23:23:00.253Z,95446.03
2022-08-17T23:25:46.669Z,95451.50
2022-08-17T23:28:37.003Z,95464.59
2022-08-17T23:31:23.465Z,95464.88
2022-08-17T23:34:13.856Z,95478.84
2022-08-17T23:37:02.340Z,95478.81
2022-08-17T23:39:48.557Z,95485.34
2022-08-17T23:42:34.937Z,95482.63
2022-08-17T23:45:21.140Z,95485.91
2022-08-17T23:48:07.997Z,95491.91
2022-08-17T23:50:55.484Z,95485.63
2022-08-17T23:53:46.207Z,95467.88
2022-08-17T23:56:33.576Z,95471.97
2022-08-17T23:59:21.553Z,95487.00
